sensor_id;sensor_type;location;lat;lon;timestamp;pressure;altitude;pressure_sealevel;temperature;humidity
20696;BME280;10507;52.754;13.040;2023-05-03T00:00:12;101588.66;;;8.22;77.89
20696;BME280;10507;52.754;13.040;2023-05-03T00:02:41;101597.78;;;8.12;79.30
20696;BME280;10507;52.754;13.040;2023-05-03T00:05:10;101610.25;;;8.10;79.54
20696;BME280;10507;52.754;13.040;2023-05-03T00:07:41;101611.22;;;8.06;78.69
20696;BME280;10507;52.754;13.040;2023-05-03T00:10:11;101623.81;;;7.99;80.31
20696;BME280;10507;52.754;13.040;2023-05-03T00:12:42;101624.88;;;7.90;80.15
20696;BME280;10507;52.754;13.040;2023-05-03T00:15:10;101621.53;;;7.82;80.09
20696;BME280;10507;52.754;13.040;2023-05-03T00:17:38;101648.19;;;7.79;80.32
20696;BME280;10507;52.754;13.040;2023-05-03T00:20:07;101675.69;;;7.78;80.66
20696;BME280;10507;52.754;13.040;2023-05-03T00:22:37;101645.88;;;7.64;80.93
20696;BME280;10507;52.754;13.040;2023-05-03T00:25:06;101659.28;;;7.58;81.47
20696;BME280;10507;52.754;13.040;2023-05-03T00:27:36;101680.69;;;7.52;80.95
20696;BME280;10507;52.754;13.040;2023-05-03T00:30:05;101686.03;;;7.48;81.83
20696;BME280;10507;52.754;13.040;2023-05-03T00:32:33;101674.75;;;7.39;82.03
20696;BME280;10507;52.754;13.040;2023-05-03T00:35:01;101684.69;;;7.29;81.88
20696;BME280;10507;52.754;13.040;2023-05-03T00:37:29;101698.94;;;7.25;82.46
20696;BME280;10507;52.754;13.040;2023-05-03T00:39:58;101689.38;;;7.15;82.83
20696;BME280;10507;52.754;13.040;2023-05-03T00:42:26;101693.91;;;7.10;82.57
20696;BME280;10507;52.754;13.040;2023-05-03T00:44:55;101681.66;;;7.02;82.78
20696;BME280;10507;52.754;13.040;2023-05-03T00:47:23;101669.41;;;6.95;82.81
20696;BME280;10507;52.754;13.040;2023-05-03T00:49:51;101682.81;;;6.86;82.91
20696;BME280;10507;52.754;13.040;2023-05-03T00:52:19;101685.69;;;6.75;82.95
20696;BME280;10507;52.754;13.040;2023-05-03T00:54:47;101698.06;;;6.75;83.57
20696;BME280;10507;52.754;13.040;2023-05-03T00:57:15;101692.97;;;6.62;83.35
20696;BME280;10507;52.754;13.040;2023-05-03T00:59:43;101712.50;;;6.58;83.75
20696;BME280;10507;52.754;13.040;2023-05-03T01:02:12;101694.16;;;6.43;84.16
20696;BME280;10507;52.754;13.040;2023-05-03T01:04:43;101726.06;;;6.40;84.42
20696;BME280;10507;52.754;13.040;2023-05-03T01:07:20;101731.50;;;6.29;84.96
20696;BME280;10507;52.754;13.040;2023-05-03T01:09:55;101759.88;;;6.24;85.08
20696;BME280;10507;52.754;13.040;2023-05-03T01:12:34;101774.13;;;6.17;85.63
20696;BME280;10507;52.754;13.040;2023-05-03T01:15:11;101799.84;;;6.10;85.99
20696;BME280;10507;52.754;13.040;2023-05-03T01:17:47;101828.09;;;6.11;86.71
20696;BME280;10507;52.754;13.040;2023-05-03T01:20:21;101817.56;;;6.08;86.20
20696;BME280;10507;52.754;13.040;2023-05-03T01:22:59;101818.53;;;5.99;86.64
20696;BME280;10507;52.754;13.040;2023-05-03T01:25:29;101825.66;;;5.93;86.65
20696;BME280;10507;52.754;13.040;2023-05-03T01:27:58;101835.44;;;5.88;86.98
20696;BME280;10507;52.754;13.040;2023-05-03T01:30:27;101840.81;;;5.80;87.41
20696;BME280;10507;52.754;13.040;2023-05-03T01:33:03;101835.59;;;5.72;87.28
20696;BME280;10507;52.754;13.040;2023-05-03T01:35:35;101855.03;;;5.71;87.31
20696;BME280;10507;52.754;13.040;2023-05-03T01:38:04;101863.88;;;5.70;87.14
20696;BME280;10507;52.754;13.040;2023-05-03T01:40:41;101855.13;;;5.65;86.82
20696;BME280;10507;52.754;13.040;2023-05-03T01:43:11;101856.94;;;5.58;87.04
20696;BME280;10507;52.754;13.040;2023-05-03T01:45:39;101849.91;;;5.54;87.10
20696;BME280;10507;52.754;13.040;2023-05-03T01:48:14;101849.06;;;5.49;87.40
20696;BME280;10507;52.754;13.040;2023-05-03T01:50:42;101882.63;;;5.50;87.46
20696;BME280;10507;52.754;13.040;2023-05-03T01:53:11;101868.56;;;5.45;87.18
20696;BME280;10507;52.754;13.040;2023-05-03T01:55:40;101876.53;;;5.40;87.52
20696;BME280;10507;52.754;13.040;2023-05-03T01:58:08;101875.69;;;5.35;87.49
20696;BME280;10507;52.754;13.040;2023-05-03T02:00:37;101884.53;;;5.31;87.89
20696;BME280;10507;52.754;13.040;2023-05-03T02:03:05;101893.38;;;5.30;87.50
20696;BME280;10507;52.754;13.040;2023-05-03T02:05:33;101900.41;;;5.33;87.92
20696;BME280;10507;52.754;13.040;2023-05-03T02:08:01;101896.06;;;5.27;87.80
20696;BME280;10507;52.754;13.040;2023-05-03T02:10:29;101904.91;;;5.23;87.89
20696;BME280;10507;52.754;13.040;2023-05-03T02:12:58;101909.34;;;5.21;87.61
20696;BME280;10507;52.754;13.040;2023-05-03T02:15:26;101923.50;;;5.18;87.86
20696;BME280;10507;52.754;13.040;2023-05-03T02:17:54;101933.22;;;5.15;88.48
20696;BME280;10507;52.754;13.040;2023-05-03T02:20:24;101933.25;;;5.12;88.12
20696;BME280;10507;52.754;13.040;2023-05-03T02:22:51;101929.75;;;5.05;88.91
20696;BME280;10507;52.754;13.040;2023-05-03T02:25:19;101956.22;;;5.04;88.86
20696;BME280;10507;52.754;13.040;2023-05-03T02:27:47;101942.16;;;4.98;88.69
20696;BME280;10507;52.754;13.040;2023-05-03T02:30:17;101964.22;;;4.96;89.09
20696;BME280;10507;52.754;13.040;2023-05-03T02:32:45;101966.88;;;4.93;88.76
20696;BME280;10507;52.754;13.040;2023-05-03T02:35:12;101985.38;;;4.93;89.11
20696;BME280;10507;52.754;13.040;2023-05-03T02:37:40;101997.75;;;4.91;89.10
20696;BME280;10507;52.754;13.040;2023-05-03T02:40:09;101996.91;;;4.86;89.61
20696;BME280;10507;52.754;13.040;2023-05-03T02:42:37;102006.63;;;4.81;89.82
20696;BME280;10507;52.754;13.040;2023-05-03T02:45:06;102019.00;;;4.80;89.93
20696;BME280;10507;52.754;13.040;2023-05-03T02:47:35;102019.00;;;4.72;90.37
20696;BME280;10507;52.754;13.040;2023-05-03T02:50:05;102015.50;;;4.66;89.97
20696;BME280;10507;52.754;13.040;2023-05-03T02:52:33;102028.75;;;4.63;90.66
20696;BME280;10507;52.754;13.040;2023-05-03T02:55:01;102012.91;;;4.53;90.54
20696;BME280;10507;52.754;13.040;2023-05-03T02:57:31;102018.22;;;4.44;90.44
20696;BME280;10507;52.754;13.040;2023-05-03T02:59:59;102027.03;;;4.37;90.44
20696;BME280;10507;52.754;13.040;2023-05-03T03:02:27;102048.22;;;4.31;91.00
20696;BME280;10507;52.754;13.040;2023-05-03T03:04:57;102057.91;;;4.27;91.75
20696;BME280;10507;52.754;13.040;2023-05-03T03:07:24;102080.81;;;4.24;91.65
20696;BME280;10507;52.754;13.040;2023-05-03T03:09:55;102093.16;;;4.25;91.80
20696;BME280;10507;52.754;13.040;2023-05-03T03:12:23;102090.50;;;4.28;91.20
20696;BME280;10507;52.754;13.040;2023-05-03T03:14:53;102094.03;;;4.24;91.66
20696;BME280;10507;52.754;13.040;2023-05-03T03:17:21;102094.91;;;4.23;91.47
20696;BME280;10507;52.754;13.040;2023-05-03T03:19:49;102089.63;;;4.16;92.03
20696;BME280;10507;52.754;13.040;2023-05-03T03:22:18;102094.91;;;4.12;92.26
20696;BME280;10507;52.754;13.040;2023-05-03T03:24:46;102124.00;;;4.13;92.33
20696;BME280;10507;52.754;13.040;2023-05-03T03:27:14;102120.47;;;4.10;92.17
20696;BME280;10507;52.754;13.040;2023-05-03T03:29:42;102145.16;;;4.13;92.42
20696;BME280;10507;52.754;13.040;2023-05-03T03:32:09;102150.44;;;4.10;92.71
20696;BME280;10507;52.754;13.040;2023-05-03T03:34:37;102150.44;;;4.10;92.26
20696;BME280;10507;52.754;13.040;2023-05-03T03:37:05;102163.66;;;4.13;92.73
20696;BME280;10507;52.754;13.040;2023-05-03T03:39:35;102175.09;;;4.15;92.67
20696;BME280;10507;52.754;13.040;2023-05-03T03:42:04;102175.09;;;4.15;92.82
20696;BME280;10507;52.754;13.040;2023-05-03T03:44:32;102169.81;;;4.15;92.16
20696;BME280;10507;52.754;13.040;2023-05-03T03:47:00;102172.44;;;4.14;92.69
20696;BME280;10507;52.754;13.040;2023-05-03T03:49:28;102191.84;;;4.16;92.55
20696;BME280;10507;52.754;13.040;2023-05-03T03:51:56;102197.13;;;4.19;93.09
20696;BME280;10507;52.754;13.040;2023-05-03T03:54:24;102199.78;;;4.21;92.98
20696;BME280;10507;52.754;13.040;2023-05-03T03:56:53;102189.19;;;4.19;92.41
20696;BME280;10507;52.754;13.040;2023-05-03T03:59:21;102183.94;;;4.18;91.94
20696;BME280;10507;52.754;13.040;2023-05-03T04:01:49;102199.78;;;4.22;92.57
20696;BME280;10507;52.754;13.040;2023-05-03T04:04:17;102197.13;;;4.21;92.46
20696;BME280;10507;52.754;13.040;2023-05-03T04:06:45;102198.91;;;4.26;92.45
20696;BME280;10507;52.754;13.040;2023-05-03T04:09:13;102210.38;;;4.33;92.11
20696;BME280;10507;52.754;13.040;2023-05-03T04:11:43;102222.72;;;4.40;92.63
20696;BME280;10507;52.754;13.040;2023-05-03T04:14:13;102209.50;;;4.45;92.23
20696;BME280;10507;52.754;13.040;2023-05-03T04:16:41;102202.44;;;4.50;91.65
20696;BME280;10507;52.754;13.040;2023-05-03T04:19:09;102220.06;;;4.62;91.54
20696;BME280;10507;52.754;13.040;2023-05-03T04:21:36;102207.75;;;4.62;91.03
20696;BME280;10507;52.754;13.040;2023-05-03T04:24:06;102205.97;;;4.69;91.24
20696;BME280;10507;52.754;13.040;2023-05-03T04:26:35;102205.06;;;4.73;90.90
20696;BME280;10507;52.754;13.040;2023-05-03T04:29:03;102175.09;;;4.69;90.40
20696;BME280;10507;52.754;13.040;2023-05-03T04:31:33;102196.25;;;4.83;90.11
20696;BME280;10507;52.754;13.040;2023-05-03T04:34:01;102193.59;;;4.94;90.01
20696;BME280;10507;52.754;13.040;2023-05-03T04:36:29;102157.41;;;4.94;89.52
20696;BME280;10507;52.754;13.040;2023-05-03T04:38:57;102171.53;;;4.96;89.37
20696;BME280;10507;52.754;13.040;2023-05-03T04:41:25;102200.63;;;5.07;89.67
20696;BME280;10507;52.754;13.040;2023-05-03T04:43:52;102182.97;;;5.09;89.22
20696;BME280;10507;52.754;13.040;2023-05-03T04:46:20;102157.38;;;5.10;89.04
20696;BME280;10507;52.754;13.040;2023-05-03T04:48:50;102189.09;;;5.27;88.55
20696;BME280;10507;52.754;13.040;2023-05-03T04:51:18;102204.06;;;5.41;88.93
20696;BME280;10507;52.754;13.040;2023-05-03T04:53:49;102263.09;;;5.77;88.36
20696;BME280;10507;52.754;13.040;2023-05-03T04:56:17;102288.53;;;6.26;86.77
20696;BME280;10507;52.754;13.040;2023-05-03T04:58:46;102279.25;;;6.89;85.19
20696;BME280;10507;52.754;13.040;2023-05-03T05:01:14;102255.53;;;7.57;82.84
20696;BME280;10507;52.754;13.040;2023-05-03T05:03:42;102138.56;;;8.17;80.32
20696;BME280;10507;52.754;13.040;2023-05-03T05:06:11;102065.28;;;8.52;77.62
20696;BME280;10507;52.754;13.040;2023-05-03T05:08:39;102064.72;;;9.23;76.30
20696;BME280;10507;52.754;13.040;2023-05-03T05:11:06;101933.38;;;9.55;74.11
20696;BME280;10507;52.754;13.040;2023-05-03T05:13:34;102029.19;;;10.66;71.59
20696;BME280;10507;52.754;13.040;2023-05-03T05:16:03;101990.84;;;11.28;69.72
20696;BME280;10507;52.754;13.040;2023-05-03T05:18:31;101932.41;;;11.97;67.46
20696;BME280;10507;52.754;13.040;2023-05-03T05:21:01;101831.69;;;12.18;66.54
20696;BME280;10507;52.754;13.040;2023-05-03T05:23:30;101709.63;;;12.35;64.85
20696;BME280;10507;52.754;13.040;2023-05-03T05:25:58;101776.13;;;12.69;64.21
20696;BME280;10507;52.754;13.040;2023-05-03T05:28:26;101503.78;;;12.27;63.86
20696;BME280;10507;52.754;13.040;2023-05-03T05:30:54;101923.94;;;13.26;64.15
20696;BME280;10507;52.754;13.040;2023-05-03T05:33:23;101732.34;;;13.11;64.05
20696;BME280;10507;52.754;13.040;2023-05-03T05:35:51;101724.72;;;13.22;63.85
20696;BME280;10507;52.754;13.040;2023-05-03T05:38:18;101770.63;;;13.57;62.92
20696;BME280;10507;52.754;13.040;2023-05-03T05:40:48;101670.41;;;13.77;62.23
20696;BME280;10507;52.754;13.040;2023-05-03T05:43:16;101723.31;;;14.13;61.70
20696;BME280;10507;52.754;13.040;2023-05-03T05:45:44;101545.00;;;13.43;62.85
20696;BME280;10507;52.754;13.040;2023-05-03T05:48:13;101735.78;;;13.95;62.35
20696;BME280;10507;52.754;13.040;2023-05-03T05:50:41;101862.81;;;14.55;61.97
20696;BME280;10507;52.754;13.040;2023-05-03T05:53:08;101681.16;;;14.32;61.91
20696;BME280;10507;52.754;13.040;2023-05-03T05:55:36;101657.53;;;14.22;62.62
20696;BME280;10507;52.754;13.040;2023-05-03T05:58:06;101811.56;;;15.14;60.66
20696;BME280;10507;52.754;13.040;2023-05-03T06:00:33;101593.97;;;14.57;60.66
20696;BME280;10507;52.754;13.040;2023-05-03T06:03:01;101598.91;;;14.66;60.72
20696;BME280;10507;52.754;13.040;2023-05-03T06:05:29;101642.34;;;14.92;60.29
20696;BME280;10507;52.754;13.040;2023-05-03T06:07:57;101701.28;;;15.14;60.10
20696;BME280;10507;52.754;13.040;2023-05-03T06:10:25;101488.75;;;14.65;60.22
20696;BME280;10507;52.754;13.040;2023-05-03T06:12:53;101479.19;;;14.92;59.59
20696;BME280;10507;52.754;13.040;2023-05-03T06:15:23;101498.28;;;14.20;61.70
20696;BME280;10507;52.754;13.040;2023-05-03T06:17:51;101701.25;;;14.79;62.32
20696;BME280;10507;52.754;13.040;2023-05-03T06:20:18;101509.16;;;14.34;61.79
20696;BME280;10507;52.754;13.040;2023-05-03T06:22:46;101737.25;;;15.29;61.03
20696;BME280;10507;52.754;13.040;2023-05-03T06:25:14;101695.31;;;15.58;60.12
20696;BME280;10507;52.754;13.040;2023-05-03T06:27:43;101590.06;;;15.31;60.42
20696;BME280;10507;52.754;13.040;2023-05-03T06:30:12;101775.00;;;15.79;60.71
20696;BME280;10507;52.754;13.040;2023-05-03T06:32:41;101733.50;;;15.99;60.49
20696;BME280;10507;52.754;13.040;2023-05-03T06:35:09;101691.84;;;15.73;60.78
20696;BME280;10507;52.754;13.040;2023-05-03T06:37:38;101730.72;;;16.49;58.39
20696;BME280;10507;52.754;13.040;2023-05-03T06:40:07;101444.34;;;15.85;58.31
20696;BME280;10507;52.754;13.040;2023-05-03T06:42:35;101538.16;;;15.45;60.03
20696;BME280;10507;52.754;13.040;2023-05-03T06:45:03;101711.16;;;15.97;60.09
20696;BME280;10507;52.754;13.040;2023-05-03T06:47:31;101759.00;;;16.41;59.80
20696;BME280;10507;52.754;13.040;2023-05-03T06:50:00;101489.47;;;15.65;59.49
20696;BME280;10507;52.754;13.040;2023-05-03T06:52:29;101395.41;;;15.00;60.56
20696;BME280;10507;52.754;13.040;2023-05-03T06:54:57;101481.72;;;14.95;61.89
20696;BME280;10507;52.754;13.040;2023-05-03T06:57:29;101528.59;;;15.07;61.57
20696;BME280;10507;52.754;13.040;2023-05-03T06:59:57;101488.72;;;14.82;61.60
20696;BME280;10507;52.754;13.040;2023-05-03T07:02:25;101761.47;;;15.97;61.23
20696;BME280;10507;52.754;13.040;2023-05-03T07:04:53;101720.97;;;16.62;59.35
20696;BME280;10507;52.754;13.040;2023-05-03T07:07:22;101757.84;;;16.46;60.73
20696;BME280;10507;52.754;13.040;2023-05-03T07:09:50;101442.28;;;15.90;58.95
20696;BME280;10507;52.754;13.040;2023-05-03T07:12:18;101729.81;;;16.96;58.83
20696;BME280;10507;52.754;13.040;2023-05-03T07:14:46;101574.78;;;17.16;57.21
20696;BME280;10507;52.754;13.040;2023-05-03T07:17:14;101379.00;;;16.83;56.75
20696;BME280;10507;52.754;13.040;2023-05-03T07:19:42;101360.31;;;15.94;59.30
20696;BME280;10507;52.754;13.040;2023-05-03T07:22:10;101745.97;;;17.26;58.68
20696;BME280;10507;52.754;13.040;2023-05-03T07:24:40;101731.56;;;17.70;57.87
20696;BME280;10507;52.754;13.040;2023-05-03T07:27:11;101665.75;;;18.14;56.90
20696;BME280;10507;52.754;13.040;2023-05-03T07:29:40;101576.63;;;18.13;55.76
20696;BME280;10507;52.754;13.040;2023-05-03T07:32:08;101226.84;;;17.13;55.79
20696;BME280;10507;52.754;13.040;2023-05-03T07:34:37;101364.28;;;17.16;56.10
20696;BME280;10507;52.754;13.040;2023-05-03T07:37:05;101298.81;;;16.58;57.60
20696;BME280;10507;52.754;13.040;2023-05-03T07:39:33;101188.59;;;15.69;59.12
20696;BME280;10507;52.754;13.040;2023-05-03T07:42:03;101644.69;;;16.90;59.88
20696;BME280;10507;52.754;13.040;2023-05-03T07:44:31;101394.03;;;16.73;58.06
20696;BME280;10507;52.754;13.040;2023-05-03T07:46:59;101289.28;;;16.52;57.23
20696;BME280;10507;52.754;13.040;2023-05-03T07:49:27;101163.88;;;15.33;59.28
20696;BME280;10507;52.754;13.040;2023-05-03T07:51:55;101465.13;;;15.83;60.89
20696;BME280;10507;52.754;13.040;2023-05-03T07:54:23;101493.94;;;16.41;59.08
20696;BME280;10507;52.754;13.040;2023-05-03T07:56:50;101792.06;;;17.67;58.68
20696;BME280;10507;52.754;13.040;2023-05-03T07:59:23;101584.56;;;17.60;57.41
20696;BME280;10507;52.754;13.040;2023-05-03T08:01:51;101475.53;;;16.92;58.79
20696;BME280;10507;52.754;13.040;2023-05-03T08:04:19;101583.91;;;17.42;58.85
20696;BME280;10507;52.754;13.040;2023-05-03T08:06:47;101155.00;;;16.17;57.71
20696;BME280;10507;52.754;13.040;2023-05-03T08:09:16;101133.47;;;14.88;60.81
20696;BME280;10507;52.754;13.040;2023-05-03T08:11:44;101249.13;;;14.57;62.88
20696;BME280;10507;52.754;13.040;2023-05-03T08:14:12;101257.19;;;14.07;64.12
20696;BME280;10507;52.754;13.040;2023-05-03T08:16:41;101233.72;;;13.62;64.37
20696;BME280;10507;52.754;13.040;2023-05-03T08:19:09;101510.91;;;14.18;65.43
20696;BME280;10507;52.754;13.040;2023-05-03T08:21:37;101704.19;;;14.74;65.99
20696;BME280;10507;52.754;13.040;2023-05-03T08:24:05;101788.56;;;15.94;63.22
20696;BME280;10507;52.754;13.040;2023-05-03T08:26:34;101640.19;;;16.14;61.37
20696;BME280;10507;52.754;13.040;2023-05-03T08:29:02;101319.31;;;15.44;59.82
20696;BME280;10507;52.754;13.040;2023-05-03T08:31:30;101213.31;;;15.02;60.28
20696;BME280;10507;52.754;13.040;2023-05-03T08:33:59;101440.16;;;15.33;61.42
20696;BME280;10507;52.754;13.040;2023-05-03T08:36:27;101292.72;;;14.62;62.35
20696;BME280;10507;52.754;13.040;2023-05-03T08:38:55;101436.34;;;14.89;62.20
20696;BME280;10507;52.754;13.040;2023-05-03T08:41:27;101425.66;;;14.72;63.47
20696;BME280;10507;52.754;13.040;2023-05-03T08:43:57;101436.78;;;14.97;61.78
20696;BME280;10507;52.754;13.040;2023-05-03T08:46:26;101366.44;;;15.05;60.73
20696;BME280;10507;52.754;13.040;2023-05-03T08:48:55;101318.22;;;14.21;62.72
20696;BME280;10507;52.754;13.040;2023-05-03T08:51:24;101475.72;;;14.57;63.63
20696;BME280;10507;52.754;13.040;2023-05-03T08:53:53;101440.88;;;14.55;63.64
20696;BME280;10507;52.754;13.040;2023-05-03T08:56:24;101388.94;;;14.22;64.07
20696;BME280;10507;52.754;13.040;2023-05-03T08:58:55;101536.34;;;14.45;64.52
20696;BME280;10507;52.754;13.040;2023-05-03T09:01:28;101374.75;;;13.85;64.54
20696;BME280;10507;52.754;13.040;2023-05-03T09:03:56;101589.25;;;14.26;65.61
20696;BME280;10507;52.754;13.040;2023-05-03T09:06:26;101648.53;;;14.76;64.74
20696;BME280;10507;52.754;13.040;2023-05-03T09:08:54;101601.94;;;14.93;63.22
20696;BME280;10507;52.754;13.040;2023-05-03T09:11:23;101500.19;;;14.68;63.65
20696;BME280;10507;52.754;13.040;2023-05-03T09:13:51;101203.75;;;13.87;61.74
20696;BME280;10507;52.754;13.040;2023-05-03T09:16:23;101419.91;;;13.94;64.51
20696;BME280;10507;52.754;13.040;2023-05-03T09:18:57;101638.31;;;14.48;65.38
20696;BME280;10507;52.754;13.040;2023-05-03T09:21:27;101564.88;;;14.30;65.55
20696;BME280;10507;52.754;13.040;2023-05-03T09:23:57;101473.00;;;14.24;64.81
20696;BME280;10507;52.754;13.040;2023-05-03T09:26:29;101776.34;;;15.01;66.12
20696;BME280;10507;52.754;13.040;2023-05-03T09:28:58;101513.56;;;14.70;63.73
20696;BME280;10507;52.754;13.040;2023-05-03T09:31:30;101392.81;;;14.49;62.44
20696;BME280;10507;52.754;13.040;2023-05-03T09:33:59;101464.66;;;14.63;62.62
20696;BME280;10507;52.754;13.040;2023-05-03T09:36:43;101388.47;;;14.64;61.55
20696;BME280;10507;52.754;13.040;2023-05-03T09:39:15;101286.50;;;14.28;61.50
20696;BME280;10507;52.754;13.040;2023-05-03T09:41:43;101300.47;;;14.34;61.15
20696;BME280;10507;52.754;13.040;2023-05-03T09:44:11;101562.81;;;14.70;63.30
20696;BME280;10507;52.754;13.040;2023-05-03T09:46:40;101280.00;;;14.16;62.10
20696;BME280;10507;52.754;13.040;2023-05-03T09:49:29;101298.13;;;14.12;61.35
20696;BME280;10507;52.754;13.040;2023-05-03T09:52:00;101491.69;;;14.93;61.33
20696;BME280;10507;52.754;13.040;2023-05-03T09:54:28;101440.81;;;14.40;63.33
20696;BME280;10507;52.754;13.040;2023-05-03T09:56:59;101554.38;;;14.78;63.41
20696;BME280;10507;52.754;13.040;2023-05-03T09:59:31;101650.31;;;15.11;63.52
20696;BME280;10507;52.754;13.040;2023-05-03T10:02:06;101731.63;;;15.51;63.58
20696;BME280;10507;52.754;13.040;2023-05-03T10:04:39;101482.09;;;15.21;61.47
20696;BME280;10507;52.754;13.040;2023-05-03T10:07:12;101474.53;;;15.44;60.42
20696;BME280;10507;52.754;13.040;2023-05-03T10:09:42;101507.41;;;15.65;60.38
20696;BME280;10507;52.754;13.040;2023-05-03T10:12:11;101594.03;;;15.89;60.97
20696;BME280;10507;52.754;13.040;2023-05-03T10:14:45;101450.81;;;15.66;59.93
20696;BME280;10507;52.754;13.040;2023-05-03T10:17:16;101255.78;;;14.65;61.55
20696;BME280;10507;52.754;13.040;2023-05-03T10:19:51;101443.56;;;15.05;61.82
20696;BME280;10507;52.754;13.040;2023-05-03T10:22:20;101408.16;;;14.96;61.89
20696;BME280;10507;52.754;13.040;2023-05-03T10:25:08;101639.38;;;15.31;63.52
20696;BME280;10507;52.754;13.040;2023-05-03T10:27:41;101533.03;;;15.24;63.29
20696;BME280;10507;52.754;13.040;2023-05-03T10:30:26;101525.22;;;15.35;62.23
20696;BME280;10507;52.754;13.040;2023-05-03T10:32:54;101702.47;;;15.76;63.58
20696;BME280;10507;52.754;13.040;2023-05-03T10:35:25;101427.72;;;15.46;61.03
20696;BME280;10507;52.754;13.040;2023-05-03T10:37:55;101564.38;;;16.05;59.92
20696;BME280;10507;52.754;13.040;2023-05-03T10:40:40;101474.97;;;15.52;61.66
20696;BME280;10507;52.754;13.040;2023-05-03T10:46:32;101567.88;;;16.07;61.06
20696;BME280;10507;52.754;13.040;2023-05-03T10:49:18;101559.81;;;16.37;59.52
20696;BME280;10507;52.754;13.040;2023-05-03T10:51:47;101538.06;;;16.40;59.38
20696;BME280;10507;52.754;13.040;2023-05-03T10:54:17;101719.53;;;17.02;59.80
20696;BME280;10507;52.754;13.040;2023-05-03T10:56:50;101491.44;;;16.82;58.36
20696;BME280;10507;52.754;13.040;2023-05-03T10:59:19;101430.44;;;16.37;59.67
20696;BME280;10507;52.754;13.040;2023-05-03T11:01:49;101435.41;;;16.14;60.30
20696;BME280;10507;52.754;13.040;2023-05-03T11:04:24;101367.31;;;15.82;60.40
20696;BME280;10507;52.754;13.040;2023-05-03T11:06:57;101365.97;;;15.89;59.97
20696;BME280;10507;52.754;13.040;2023-05-03T11:09:33;101211.78;;;15.43;59.33
20696;BME280;10507;52.754;13.040;2023-05-03T11:12:06;101045.59;;;14.60;60.80
20696;BME280;10507;52.754;13.040;2023-05-03T11:14:35;101145.16;;;14.57;61.07
20696;BME280;10507;52.754;13.040;2023-05-03T11:17:05;101075.47;;;14.08;61.43
20696;BME280;10507;52.754;13.040;2023-05-03T11:19:33;101021.56;;;13.81;60.73
20696;BME280;10507;52.754;13.040;2023-05-03T11:22:01;101241.28;;;14.52;60.63
20696;BME280;10507;52.754;13.040;2023-05-03T11:24:29;101239.13;;;14.74;59.73
20696;BME280;10507;52.754;13.040;2023-05-03T11:26:58;101372.91;;;15.17;60.01
20696;BME280;10507;52.754;13.040;2023-05-03T11:29:34;101223.13;;;15.17;58.35
20696;BME280;10507;52.754;13.040;2023-05-03T11:32:06;101314.53;;;15.19;59.37
20696;BME280;10507;52.754;13.040;2023-05-03T11:34:34;101461.59;;;15.34;61.87
20696;BME280;10507;52.754;13.040;2023-05-03T11:37:02;101460.88;;;15.63;60.54
20696;BME280;10507;52.754;13.040;2023-05-03T11:39:31;101352.38;;;15.46;60.02
20696;BME280;10507;52.754;13.040;2023-05-03T11:42:01;101180.50;;;15.11;59.22
20696;BME280;10507;52.754;13.040;2023-05-03T11:44:30;101247.59;;;14.99;60.23
20696;BME280;10507;52.754;13.040;2023-05-03T11:46:58;101160.09;;;14.63;60.05
20696;BME280;10507;52.754;13.040;2023-05-03T11:49:30;101163.47;;;14.66;60.25
20696;BME280;10507;52.754;13.040;2023-05-03T11:51:59;101289.16;;;14.77;61.17
20696;BME280;10507;52.754;13.040;2023-05-03T11:54:28;101191.78;;;14.72;60.04
20696;BME280;10507;52.754;13.040;2023-05-03T11:56:58;101108.53;;;14.40;59.62
20696;BME280;10507;52.754;13.040;2023-05-03T11:59:38;101165.03;;;14.54;59.80
20696;BME280;10507;52.754;13.040;2023-05-03T12:02:08;101274.78;;;14.78;60.51
20696;BME280;10507;52.754;13.040;2023-05-03T12:04:37;101435.91;;;15.13;61.51
20696;BME280;10507;52.754;13.040;2023-05-03T12:07:09;101383.34;;;15.07;61.04
20696;BME280;10507;52.754;13.040;2023-05-03T12:09:42;101328.25;;;15.14;60.11
20696;BME280;10507;52.754;13.040;2023-05-03T12:12:25;101324.69;;;15.14;60.49
20696;BME280;10507;52.754;13.040;2023-05-03T12:15:02;101257.13;;;14.88;60.67
20696;BME280;10507;52.754;13.040;2023-05-03T12:17:34;101368.25;;;15.05;61.30
20696;BME280;10507;52.754;13.040;2023-05-03T12:20:14;101280.38;;;15.05;60.33
20696;BME280;10507;52.754;13.040;2023-05-03T12:23:04;101361.09;;;15.20;60.81
20696;BME280;10507;52.754;13.040;2023-05-03T12:25:36;101283.47;;;14.97;61.08
20696;BME280;10507;52.754;13.040;2023-05-03T12:28:05;101281.41;;;15.03;60.57
20696;BME280;10507;52.754;13.040;2023-05-03T12:30:38;101329.97;;;15.15;60.64
20696;BME280;10507;52.754;13.040;2023-05-03T12:33:06;101330.03;;;15.30;59.92
20696;BME280;10507;52.754;13.040;2023-05-03T12:35:36;101131.53;;;14.76;59.74
20696;BME280;10507;52.754;13.040;2023-05-03T12:38:06;101254.84;;;14.82;60.66
20696;BME280;10507;52.754;13.040;2023-05-03T12:40:36;101335.81;;;15.08;61.05
20696;BME280;10507;52.754;13.040;2023-05-03T12:43:06;101315.56;;;15.16;60.16
20696;BME280;10507;52.754;13.040;2023-05-03T12:45:34;101257.06;;;14.90;60.45
20696;BME280;10507;52.754;13.040;2023-05-03T12:48:07;101307.69;;;14.97;60.65
20696;BME280;10507;52.754;13.040;2023-05-03T12:50:36;101196.53;;;14.83;59.77
20696;BME280;10507;52.754;13.040;2023-05-03T12:53:06;101271.78;;;14.99;60.32
20696;BME280;10507;52.754;13.040;2023-05-03T12:55:37;101299.63;;;14.97;60.64
20696;BME280;10507;52.754;13.040;2023-05-03T12:58:08;101285.47;;;15.10;59.78